Time;durP1;ratioP1;P1;durP2;ratioP2;P2;SDS_P1;SDS_P2;PMS_P1;PMS_P2;Temp;Humidity;BMP_temperature;BMP_pressure;BME280_temperature;BME280_humidity;BME280_pressure;Samples;Min_cycle;Max_cycle;Signal;HPM_P1;HPM_P2
2022/12/16 00:00:19;;;;;;;25.67;12.02;;;;;;;;;;5030159;28;20064;-78
2022/12/16 00:02:45;;;;;;;32.58;12.48;;;;;;;;;;5026732;28;20155;-77
2022/12/16 00:05:10;;;;;;;39.95;16.25;;;;;;;;;;5028019;28;20124;-77
2022/12/16 00:07:35;;;;;;;22.25;9.98;;;;;;;;;;5028281;28;20039;-77
2022/12/16 00:10:01;;;;;;;29.30;13.35;;;;;;;;;;5028384;28;20061;-77
2022/12/16 00:12:26;;;;;;;30.17;13.02;;;;;;;;;;5027388;28;20029;-77
2022/12/16 00:14:52;;;;;;;34.17;10.52;;;;;;;;;;5026373;28;20045;-77
2022/12/16 00:17:17;;;;;;;33.22;13.85;;;;;;;;;;5019424;28;20046;-77
2022/12/16 00:19:42;;;;;;;36.28;13.93;;;;;;;;;;5018924;28;20052;-77
2022/12/16 00:22:08;;;;;;;29.83;14.20;;;;;;;;;;5013607;28;20056;-78
2022/12/16 00:24:33;;;;;;;31.77;13.60;;;;;;;;;;5014858;28;20087;-77
2022/12/16 00:26:58;;;;;;;50.03;15.02;;;;;;;;;;5008067;28;20040;-77
2022/12/16 00:29:24;;;;;;;28.55;12.60;;;;;;;;;;5009012;28;20065;-77
2022/12/16 00:31:49;;;;;;;34.60;15.60;;;;;;;;;;5008302;28;20092;-77
2022/12/16 00:34:15;;;;;;;29.75;12.90;;;;;;;;;;5023509;28;20033;-77
2022/12/16 00:36:40;;;;;;;32.78;13.57;;;;;;;;;;5025709;28;20087;-76
2022/12/16 00:39:06;;;;;;;33.47;13.30;;;;;;;;;;5027661;28;20032;-77
2022/12/16 00:41:31;;;;;;;40.33;14.02;;;;;;;;;;5027918;28;20041;-77
2022/12/16 00:43:56;;;;;;;25.83;11.27;;;;;;;;;;5026285;28;20479;-77
2022/12/16 00:46:22;;;;;;;26.33;12.35;;;;;;;;;;5024565;28;20037;-77
2022/12/16 00:48:47;;;;;;;35.70;13.00;;;;;;;;;;5015856;28;20018;-77
2022/12/16 00:51:12;;;;;;;27.80;12.85;;;;;;;;;;5019639;28;20022;-77
2022/12/16 00:53:38;;;;;;;29.73;13.73;;;;;;;;;;5002559;28;20034;-77
2022/12/16 00:56:05;;;;;;;30.23;14.40;;;;;;;;;;4986810;28;20042;-78
2022/12/16 00:58:31;;;;;;;33.50;13.35;;;;;;;;;;4987829;28;20455;-77
2022/12/16 01:00:56;;;;;;;27.88;12.43;;;;;;;;;;4987911;28;20084;-77
2022/12/16 01:03:21;;;;;;;34.17;14.80;;;;;;;;;;4988533;28;20026;-77
2022/12/16 01:05:47;;;;;;;36.90;11.35;;;;;;;;;;4985728;28;20061;-77
2022/12/16 01:08:12;;;;;;;35.05;12.15;;;;;;;;;;4986347;28;20247;-77
2022/12/16 01:10:37;;;;;;;20.77;11.93;;;;;;;;;;4986203;28;20034;-77
2022/12/16 01:13:03;;;;;;;33.97;13.32;;;;;;;;;;4987793;28;20504;-78
2022/12/16 01:15:28;;;;;;;35.63;11.90;;;;;;;;;;4989749;28;20100;-78
2022/12/16 01:17:53;;;;;;;25.35;10.68;;;;;;;;;;5032507;28;20465;-77
2022/12/16 01:20:19;;;;;;;25.92;12.43;;;;;;;;;;5055023;28;20143;-77
2022/12/16 01:22:44;;;;;;;31.08;12.60;;;;;;;;;;5022255;28;20038;-77
2022/12/16 01:25:14;;;;;;;44.35;13.40;;;;;;;;;;5001477;28;20036;-77
2022/12/16 01:27:40;;;;;;;38.15;12.00;;;;;;;;;;5026579;28;20052;-77
2022/12/16 01:30:06;;;;;;;28.77;14.32;;;;;;;;;;5023044;28;20080;-77
2022/12/16 01:32:31;;;;;;;33.72;12.63;;;;;;;;;;5009526;28;20037;-78
2022/12/16 01:34:57;;;;;;;30.63;13.82;;;;;;;;;;5004546;28;20042;-77
2022/12/16 01:37:23;;;;;;;31.48;14.23;;;;;;;;;;5010846;28;20034;-77
2022/12/16 01:39:49;;;;;;;27.13;12.52;;;;;;;;;;5012803;28;20034;-77
2022/12/16 01:42:17;;;;;;;26.25;12.43;;;;;;;;;;5025567;28;20091;-77
2022/12/16 01:44:44;;;;;;;28.13;10.82;;;;;;;;;;5022775;28;20042;-77
2022/12/16 01:47:16;;;;;;;33.08;14.40;;;;;;;;;;4998721;28;20748;-78
2022/12/16 01:50:01;;;;;;;23.42;11.70;;;;;;;;;;5012031;28;20100;-77
2022/12/16 01:52:30;;;;;;;40.17;12.85;;;;;;;;;;5021439;28;20041;-78
2022/12/16 01:55:05;;;;;;;24.50;12.65;;;;;;;;;;5009129;28;20565;-77
2022/12/16 01:57:47;;;;;;;29.88;12.10;;;;;;;;;;5026785;28;20071;-77
2022/12/16 02:00:12;;;;;;;26.95;12.10;;;;;;;;;;5024432;28;20055;-77
2022/12/16 02:02:38;;;;;;;34.83;14.05;;;;;;;;;;5021264;28;20128;-77
2022/12/16 02:05:19;;;;;;;26.95;11.95;;;;;;;;;;5015829;28;20419;-77
2022/12/16 02:08:08;;;;;;;30.25;13.38;;;;;;;;;;5025199;28;20037;-78
2022/12/16 02:10:42;;;;;;;30.95;12.35;;;;;;;;;;5014929;28;20521;-77
2022/12/16 02:13:10;;;;;;;37.08;12.52;;;;;;;;;;5022699;28;20065;-78
2022/12/16 02:15:48;;;;;;;24.95;10.85;;;;;;;;;;5026904;28;20061;-77
2022/12/16 02:18:29;;;;;;;20.75;11.38;;;;;;;;;;5042176;28;20048;-77
2022/12/16 02:21:09;;;;;;;27.40;12.23;;;;;;;;;;5024436;28;20034;-77
2022/12/16 02:24:09;;;;;;;24.00;10.65;;;;;;;;;;5021724;28;20030;-77
2022/12/16 02:27:03;;;;;;;22.60;12.50;;;;;;;;;;5017928;28;20061;-77
2022/12/16 02:29:31;;;;;;;42.15;12.85;;;;;;;;;;5014924;28;20034;-77
2022/12/16 02:32:26;;;;;;;26.33;11.50;;;;;;;;;;5041691;28;20033;-77
2022/12/16 02:35:00;;;;;;;29.15;11.82;;;;;;;;;;5033081;28;20462;-77
2022/12/16 02:37:47;;;;;;;28.80;11.23;;;;;;;;;;5036247;28;20041;-77
2022/12/16 02:40:23;;;;;;;28.88;12.57;;;;;;;;;;5065206;28;20041;-77
2022/12/16 02:43:24;;;;;;;26.05;12.23;;;;;;;;;;5048524;28;20073;-77
2022/12/16 02:45:49;;;;;;;24.83;11.48;;;;;;;;;;5040014;28;20037;-77
2022/12/16 02:48:15;;;;;;;18.95;9.48;;;;;;;;;;5044915;28;20530;-77
2022/12/16 02:50:50;;;;;;;23.35;10.18;;;;;;;;;;5030515;28;20041;-77
2022/12/16 02:53:18;;;;;;;26.35;12.82;;;;;;;;;;5028323;28;20041;-77
2022/12/16 02:55:46;;;;;;;23.48;11.73;;;;;;;;;;5044952;28;20038;-77
2022/12/16 02:58:23;;;;;;;21.08;10.55;;;;;;;;;;5029963;28;20045;-77
2022/12/16 03:01:10;;;;;;;24.92;11.13;;;;;;;;;;5019358;28;20114;-76
2022/12/16 03:04:08;;;;;;;31.15;13.35;;;;;;;;;;5025290;28;20026;-78
2022/12/16 03:06:36;;;;;;;29.60;10.73;;;;;;;;;;5009901;28;20527;-77
2022/12/16 03:09:07;;;;;;;32.25;12.32;;;;;;;;;;5029242;28;20038;-77
2022/12/16 03:11:32;;;;;;;21.65;10.77;;;;;;;;;;5028538;28;20037;-77
2022/12/16 03:13:59;;;;;;;23.10;10.70;;;;;;;;;;5029476;28;20053;-77
2022/12/16 03:16:30;;;;;;;16.63;9.68;;;;;;;;;;5028638;28;20037;-77
2022/12/16 03:19:00;;;;;;;22.70;11.48;;;;;;;;;;5027928;28;20484;-77
2022/12/16 03:21:30;;;;;;;28.55;9.80;;;;;;;;;;5021839;28;20099;-77
2022/12/16 03:24:09;;;;;;;25.20;12.90;;;;;;;;;;5007580;28;20078;-77
2022/12/16 03:26:52;;;;;;;28.08;11.10;;;;;;;;;;5008796;28;20117;-77
2022/12/16 03:29:20;;;;;;;;;;;;;;;;;;5038032;28;20037;-77
2022/12/16 03:31:51;;;;;;;25.77;10.68;;;;;;;;;;5049089;28;19913;-77
2022/12/16 03:34:42;;;;;;;19.40;10.98;;;;;;;;;;5049243;28;20029;-77
2022/12/16 03:37:10;;;;;;;41.95;11.77;;;;;;;;;;5049203;28;20192;-77
2022/12/16 03:39:42;;;;;;;23.52;11.20;;;;;;;;;;5047848;28;20033;-77
2022/12/16 03:42:08;;;;;;;30.33;12.75;;;;;;;;;;5046718;28;20029;-77
2022/12/16 03:44:34;;;;;;;23.73;12.13;;;;;;;;;;5047995;28;20545;-77
2022/12/16 03:47:00;;;;;;;31.42;13.32;;;;;;;;;;5047581;28;20032;-77
2022/12/16 03:49:25;;;;;;;23.02;12.68;;;;;;;;;;5012943;28;20060;-77
2022/12/16 03:51:53;;;;;;;21.65;10.38;;;;;;;;;;5008718;28;20029;-77
2022/12/16 03:54:18;;;;;;;29.02;13.43;;;;;;;;;;5008314;28;20380;-77
2022/12/16 03:56:44;;;;;;;40.08;15.30;;;;;;;;;;5011272;28;20888;-77
2022/12/16 03:59:09;;;;;;;30.33;13.95;;;;;;;;;;5026606;28;20580;-77
2022/12/16 04:01:36;;;;;;;35.63;15.32;;;;;;;;;;5029045;28;20034;-77
2022/12/16 04:04:01;;;;;;;32.40;15.48;;;;;;;;;;5051713;28;20041;-77
2022/12/16 04:06:27;;;;;;;35.03;15.70;;;;;;;;;;5054377;28;20029;-77
2022/12/16 04:08:52;;;;;;;31.27;13.18;;;;;;;;;;5036716;28;20455;-77
2022/12/16 04:25:32;;;;;;;27.90;12.27;;;;;;;;;;5008704;28;20092;-77
2022/12/16 04:27:58;;;;;;;31.23;14.27;;;;;;;;;;5014247;28;20025;-77
2022/12/16 04:30:26;;;;;;;39.42;14.73;;;;;;;;;;5037229;28;20113;-77
